createdAt,value
2018-03-03T00:00:17.817Z,47.70
2018-03-03T00:01:17.806Z,47.72
2018-03-03T00:02:17.875Z,47.63
2018-03-03T00:03:17.927Z,47.70
2018-03-03T00:04:17.939Z,47.82
2018-03-03T00:05:18.273Z,47.70
2018-03-03T00:06:17.987Z,47.92
2018-03-03T00:07:17.977Z,47.82
2018-03-03T00:08:18.041Z,48.02
2018-03-03T00:09:18.056Z,47.63
2018-03-03T00:10:18.072Z,47.63
2018-03-03T00:11:18.420Z,47.53
2018-03-03T00:12:18.147Z,47.24
2018-03-03T00:13:18.211Z,47.15
2018-03-03T00:14:18.176Z,47.24
2018-03-03T00:15:18.222Z,47.24
2018-03-03T00:16:18.328Z,47.44
2018-03-03T00:17:18.617Z,47.34
2018-03-03T00:18:18.340Z,47.44
2018-03-03T00:19:18.343Z,47.44
2018-03-03T00:20:18.380Z,47.44
2018-03-03T00:21:18.377Z,47.53
2018-03-03T00:22:18.744Z,47.44
2018-03-03T00:23:18.810Z,47.44
2018-03-03T00:24:18.518Z,47.34
2018-03-03T00:25:18.575Z,47.34
2018-03-03T00:26:18.681Z,47.44
2018-03-03T00:27:18.596Z,47.34
2018-03-03T00:28:18.635Z,47.44
2018-03-03T00:29:18.992Z,47.53
2018-03-03T00:30:18.662Z,47.44
2018-03-03T00:31:18.751Z,47.24
2018-03-03T00:32:18.729Z,47.44
2018-03-03T00:33:18.747Z,47.24
2018-03-03T00:34:19.314Z,47.44
2018-03-03T00:35:19.160Z,47.63
2018-03-03T00:36:18.873Z,47.15
2018-03-03T00:37:18.875Z,47.53
2018-03-03T00:38:18.909Z,47.53
2018-03-03T00:39:18.978Z,47.15
2018-03-03T00:40:19.114Z,47.44
2018-03-03T00:41:19.389Z,47.44
2018-03-03T00:42:19.158Z,47.24
2018-03-03T00:43:19.158Z,47.15
2018-03-03T00:44:20.000Z,47.24
2018-03-03T00:45:19.330Z,47.44
2018-03-03T00:46:19.200Z,47.34
2018-03-03T00:47:19.499Z,47.44
2018-03-03T00:48:19.319Z,47.63
2018-03-03T00:49:19.243Z,47.63
2018-03-03T00:50:19.302Z,47.34
2018-03-03T00:51:19.311Z,47.34
2018-03-03T00:52:19.335Z,47.24
2018-03-03T00:53:19.675Z,47.44
2018-03-03T00:54:19.628Z,47.44
2018-03-03T00:55:19.452Z,47.63
2018-03-03T00:56:19.440Z,47.63
2018-03-03T00:57:19.466Z,47.53
2018-03-03T00:58:19.538Z,47.53
2018-03-03T00:59:19.693Z,47.63
2018-03-03T01:00:19.916Z,47.34
2018-03-03T01:01:19.617Z,47.63
2018-03-03T01:02:19.730Z,47.53
2018-03-03T01:03:20.110Z,47.53
2018-03-03T01:04:19.812Z,47.24
2018-03-03T01:05:19.795Z,47.53
2018-03-03T01:06:19.746Z,47.31
2018-03-03T01:07:20.106Z,47.63
2018-03-03T01:08:19.807Z,47.44
2018-03-03T01:09:20.233Z,47.41
2018-03-03T01:10:19.983Z,47.44
2018-03-03T01:11:19.990Z,47.41
2018-03-03T01:12:19.991Z,47.34
2018-03-03T01:13:19.994Z,47.31
2018-03-03T01:14:20.514Z,47.44
2018-03-03T01:15:20.023Z,47.41
2018-03-03T01:16:20.120Z,47.41
2018-03-03T01:17:20.141Z,47.41
2018-03-03T01:18:20.465Z,47.41
2018-03-03T01:20:20.202Z,47.41
2018-03-03T01:21:20.958Z,47.41
2018-03-03T01:22:20.232Z,47.31
2018-03-03T01:23:20.292Z,47.31
2018-03-03T01:24:20.414Z,47.31
2018-03-03T01:25:20.451Z,47.41
2018-03-03T01:26:20.301Z,47.41
2018-03-03T01:27:20.499Z,47.34
2018-03-03T01:28:21.232Z,47.41
2018-03-03T01:29:20.552Z,47.31
2018-03-03T01:30:20.442Z,47.31
2018-03-03T01:31:20.622Z,47.31
2018-03-03T01:32:20.518Z,47.31
2018-03-03T01:33:20.674Z,47.41
2018-03-03T01:34:20.941Z,47.41
2018-03-03T01:35:20.927Z,47.22
2018-03-03T01:36:20.748Z,47.41
2018-03-03T01:37:20.707Z,47.41
2018-03-03T01:38:20.719Z,47.22
2018-03-03T01:39:20.754Z,47.41
2018-03-03T01:40:20.713Z,47.13
2018-03-03T01:41:20.802Z,47.41
2018-03-03T01:42:21.492Z,47.31
2018-03-03T01:43:20.913Z,47.31
2018-03-03T01:44:20.965Z,47.41
2018-03-03T01:45:21.076Z,47.44
2018-03-03T01:46:20.958Z,47.41
2018-03-03T01:48:21.505Z,47.44
2018-03-03T01:49:21.333Z,47.41
2018-03-03T01:50:21.117Z,47.41
2018-03-03T01:51:21.117Z,47.44
2018-03-03T01:52:21.198Z,47.44
2018-03-03T01:53:21.178Z,47.34
2018-03-03T01:54:21.134Z,47.44
2018-03-03T01:55:21.535Z,47.63
2018-03-03T01:56:21.193Z,47.63
2018-03-03T01:57:21.246Z,47.34
2018-03-03T01:58:21.368Z,47.53
2018-03-03T01:59:21.331Z,47.63
2018-03-03T02:00:21.555Z,47.24
2018-03-03T02:01:21.404Z,47.34
2018-03-03T02:02:21.697Z,46.86
2018-03-03T02:03:21.459Z,47.05
2018-03-03T02:04:21.501Z,47.24
2018-03-03T02:05:21.476Z,47.05
2018-03-03T02:06:21.552Z,47.05
2018-03-03T02:07:21.536Z,47.05
2018-03-03T02:08:21.602Z,47.05
2018-03-03T02:09:21.896Z,47.34
2018-03-03T02:10:21.663Z,47.34
2018-03-03T02:11:21.683Z,47.24
2018-03-03T02:12:21.686Z,47.05
2018-03-03T02:13:21.762Z,47.05
2018-03-03T02:14:21.718Z,47.05
2018-03-03T02:15:22.120Z,47.15
2018-03-03T02:16:21.817Z,46.95
2018-03-03T02:17:21.952Z,47.15
2018-03-03T02:18:21.863Z,47.15
2018-03-03T02:19:21.890Z,47.05
2018-03-03T02:20:22.017Z,47.05
2018-03-03T02:21:22.653Z,47.05
2018-03-03T02:22:22.132Z,47.05
2018-03-03T02:23:22.125Z,47.24
2018-03-03T02:24:22.105Z,47.15
2018-03-03T02:25:22.058Z,46.95
2018-03-03T02:26:22.081Z,47.34
2018-03-03T02:27:22.435Z,47.15
2018-03-03T02:28:22.178Z,47.05
2018-03-03T02:29:22.164Z,47.05
2018-03-03T02:30:22.197Z,47.05
2018-03-03T02:31:22.221Z,47.05
2018-03-03T02:32:22.318Z,46.57
2018-03-03T02:33:22.624Z,46.77
2018-03-03T02:34:22.470Z,47.05
2018-03-03T02:35:22.336Z,46.77
2018-03-03T02:36:22.393Z,47.24
2018-03-03T02:37:22.491Z,46.57
2018-03-03T02:38:22.452Z,46.95
2018-03-03T02:39:23.027Z,47.05
2018-03-03T02:40:22.539Z,47.05
2018-03-03T02:41:22.923Z,47.05
2018-03-03T02:42:22.596Z,47.15
2018-03-03T02:43:22.649Z,46.95
2018-03-03T02:44:22.830Z,47.15
2018-03-03T02:45:23.366Z,46.95
2018-03-03T02:46:22.736Z,47.15
2018-03-03T02:47:22.721Z,47.24
2018-03-03T02:48:22.784Z,47.15
2018-03-03T02:49:22.804Z,47.24
2018-03-03T02:50:22.983Z,47.15
2018-03-03T02:51:23.115Z,47.15
2018-03-03T02:52:22.859Z,47.24
2018-03-03T02:53:22.878Z,47.15
2018-03-03T02:54:22.986Z,47.34
2018-03-03T02:55:22.973Z,47.05
2018-03-03T02:56:22.969Z,47.15
2018-03-03T02:57:23.395Z,47.05
2018-03-03T02:58:23.015Z,47.05
2018-03-03T02:59:23.149Z,47.15
2018-03-03T03:00:23.070Z,47.15
2018-03-03T03:01:23.180Z,47.05
2018-03-03T03:02:23.177Z,47.13
2018-03-03T03:03:23.459Z,47.13
2018-03-03T03:04:23.243Z,47.13
2018-03-03T03:05:23.220Z,47.03
2018-03-03T03:06:23.243Z,47.03
2018-03-03T03:07:23.290Z,47.13
2018-03-03T03:08:23.352Z,47.03
2018-03-03T03:09:23.729Z,47.05
2018-03-03T03:10:23.398Z,47.03
2018-03-03T03:11:23.413Z,46.93
2018-03-03T03:12:23.511Z,47.22
2018-03-03T03:13:23.474Z,47.31
2018-03-03T03:14:23.494Z,47.31
2018-03-03T03:15:23.880Z,46.74
2018-03-03T03:16:23.559Z,47.03
2018-03-03T03:17:24.023Z,46.95
2018-03-03T03:18:23.662Z,47.31
2018-03-03T03:19:23.659Z,46.86
2018-03-03T03:20:23.748Z,47.22
2018-03-03T03:21:24.027Z,47.22
2018-03-03T03:22:23.730Z,46.93
2018-03-03T03:23:23.789Z,46.93
2018-03-03T03:24:23.814Z,47.31
2018-03-03T03:25:23.974Z,47.41
2018-03-03T03:26:23.833Z,47.22
2018-03-03T03:27:23.876Z,47.24
2018-03-03T03:28:24.277Z,47.13
2018-03-03T03:29:23.927Z,47.24
2018-03-03T03:30:24.028Z,47.05
2018-03-03T03:31:24.015Z,47.03
2018-03-03T03:32:24.025Z,47.15
2018-03-03T03:33:24.055Z,47.03
2018-03-03T03:34:24.085Z,46.93
2018-03-03T03:35:24.468Z,47.05
2018-03-03T03:36:24.152Z,47.05
2018-03-03T03:37:24.166Z,47.15
2018-03-03T03:38:24.226Z,47.15
2018-03-03T03:39:24.236Z,47.24
2018-03-03T03:40:24.255Z,47.15
2018-03-03T03:41:24.437Z,47.05
2018-03-03T03:42:24.613Z,47.15
2018-03-03T03:43:24.347Z,46.95
2018-03-03T03:44:24.371Z,46.95
2018-03-03T03:45:24.406Z,47.15
2018-03-03T03:46:24.426Z,47.05
2018-03-03T03:47:24.451Z,47.05
2018-03-03T03:48:24.539Z,47.05
2018-03-03T03:49:24.878Z,46.95
2018-03-03T03:50:24.742Z,46.95
2018-03-03T03:51:24.583Z,47.15
2018-03-03T03:52:24.603Z,47.15
2018-03-03T03:53:24.636Z,47.15
2018-03-03T03:54:24.683Z,47.24
2018-03-03T03:55:24.813Z,47.24
2018-03-03T03:56:25.012Z,46.47
2018-03-03T03:57:25.118Z,47.34
2018-03-03T03:58:24.788Z,47.44
2018-03-03T03:59:24.884Z,47.34
2018-03-03T04:00:24.915Z,47.44
2018-03-03T04:01:24.959Z,47.34
2018-03-03T04:02:25.108Z,47.34
2018-03-03T04:03:25.227Z,46.77
2018-03-03T04:04:24.981Z,47.34
2018-03-03T04:05:24.991Z,46.95
2018-03-03T04:06:25.025Z,46.95
2018-03-03T04:07:29.825Z,46.86
2018-03-03T04:08:25.081Z,46.86
2018-03-03T04:09:25.157Z,46.77
2018-03-03T04:11:25.376Z,46.86
2018-03-03T04:12:25.215Z,46.77
2018-03-03T04:13:25.222Z,46.86
2018-03-03T04:14:25.251Z,46.77
2018-03-03T04:15:25.297Z,46.77
2018-03-03T04:16:25.315Z,47.15
2018-03-03T04:17:25.657Z,47.15
2018-03-03T04:18:25.374Z,46.86
2018-03-03T04:19:25.439Z,46.86
2018-03-03T04:20:25.425Z,46.86
2018-03-03T04:21:25.449Z,46.77
2018-03-03T04:22:25.487Z,47.05
2018-03-03T04:23:25.507Z,47.05
2018-03-03T04:24:25.915Z,46.77
2018-03-03T04:25:25.570Z,46.77
2018-03-03T04:26:25.599Z,47.15
2018-03-03T04:27:25.649Z,46.77
2018-03-03T04:28:25.676Z,46.95
2018-03-03T04:29:25.940Z,46.95
2018-03-03T04:30:25.758Z,46.86
2018-03-03T04:31:26.055Z,46.86
2018-03-03T04:32:25.807Z,46.77
2018-03-03T04:33:25.847Z,46.95
2018-03-03T04:34:25.865Z,46.86
2018-03-03T04:35:25.876Z,46.86
2018-03-03T04:36:25.920Z,46.95
2018-03-03T04:37:25.993Z,46.86
2018-03-03T04:38:26.255Z,46.95
2018-03-03T04:39:26.217Z,46.86
2018-03-03T04:40:26.019Z,47.34
2018-03-03T04:41:26.058Z,47.44
2018-03-03T04:42:26.094Z,46.95
2018-03-03T04:43:26.117Z,47.34
2018-03-03T04:44:26.462Z,47.44
2018-03-03T04:45:26.268Z,46.95
2018-03-03T04:46:26.220Z,47.34
2018-03-03T04:47:26.247Z,46.57
2018-03-03T04:48:26.293Z,46.77
2018-03-03T04:49:26.555Z,47.44
2018-03-03T04:50:26.635Z,47.34
2018-03-03T04:51:26.411Z,46.67
2018-03-03T04:52:26.400Z,46.77
2018-03-03T04:53:26.390Z,47.34
2018-03-03T04:54:26.424Z,47.44
2018-03-03T04:55:26.470Z,46.67
2018-03-03T04:56:26.797Z,47.22
2018-03-03T04:57:26.585Z,46.86
2018-03-03T04:58:26.544Z,47.44
2018-03-03T04:59:26.588Z,46.84
2018-03-03T05:00:26.608Z,46.86
2018-03-03T05:01:26.640Z,47.13
2018-03-03T05:02:26.968Z,46.77
2018-03-03T05:03:26.700Z,46.93
2018-03-03T05:04:26.773Z,46.67
2018-03-03T05:05:26.753Z,46.67
2018-03-03T05:06:26.792Z,47.15
2018-03-03T05:07:26.819Z,46.74
2018-03-03T05:08:27.142Z,46.64
2018-03-03T05:09:26.931Z,46.93
2018-03-03T05:10:26.931Z,47.22
2018-03-03T05:11:26.946Z,47.05
2018-03-03T05:12:26.960Z,47.05
2018-03-03T05:13:27.024Z,46.74
2018-03-03T05:14:27.340Z,47.13
2018-03-03T05:15:27.114Z,47.05
2018-03-03T05:16:27.121Z,47.03
2018-03-03T05:17:27.160Z,47.05
2018-03-03T05:18:27.135Z,47.03
2018-03-03T05:19:27.225Z,46.86
2018-03-03T05:20:27.535Z,46.74
2018-03-03T05:21:27.276Z,46.74
2018-03-03T05:22:27.284Z,46.95
2018-03-03T05:23:27.303Z,46.93
2018-03-03T05:24:27.320Z,46.95
2018-03-03T05:25:27.404Z,47.05
2018-03-03T05:26:27.705Z,46.67
2018-03-03T05:27:27.424Z,47.03
2018-03-03T05:28:27.426Z,47.05
2018-03-03T05:29:27.736Z,46.77
2018-03-03T05:30:27.538Z,46.84
2018-03-03T05:31:27.532Z,47.05
2018-03-03T05:32:27.857Z,47.44
2018-03-03T05:33:27.623Z,47.34
2018-03-03T05:34:27.645Z,47.34
2018-03-03T05:35:27.697Z,47.44
2018-03-03T05:36:27.698Z,46.95
2018-03-03T05:37:27.723Z,47.44
2018-03-03T05:38:28.072Z,46.86
2018-03-03T05:39:27.888Z,46.86
2018-03-03T05:40:27.800Z,46.86
2018-03-03T05:41:27.836Z,46.77
2018-03-03T05:42:27.848Z,46.77
2018-03-03T05:43:27.888Z,46.95
2018-03-03T05:44:28.298Z,46.86
2018-03-03T05:45:27.963Z,46.86
2018-03-03T05:46:27.974Z,46.86
2018-03-03T05:47:28.011Z,46.86
2018-03-03T05:48:28.046Z,46.77
2018-03-03T05:49:28.064Z,46.86
2018-03-03T05:50:28.547Z,47.05
2018-03-03T05:51:28.131Z,46.95
2018-03-03T05:52:28.183Z,46.95
2018-03-03T05:53:28.223Z,47.05
2018-03-03T05:54:28.269Z,47.05
2018-03-03T05:55:28.231Z,46.95
2018-03-03T05:56:28.275Z,46.95
2018-03-03T05:57:28.682Z,46.95
2018-03-03T05:58:28.357Z,47.05
2018-03-03T05:59:28.379Z,46.95
2018-03-03T06:00:28.399Z,47.05
2018-03-03T06:01:28.519Z,47.05
2018-03-03T06:02:28.467Z,47.05
2018-03-03T06:03:28.507Z,47.05
2018-03-03T06:04:28.855Z,47.05
2018-03-03T06:05:28.518Z,46.95
2018-03-03T06:06:28.701Z,47.05
2018-03-03T06:07:28.650Z,46.95
2018-03-03T06:08:28.678Z,46.86
2018-03-03T06:10:29.128Z,47.05
2018-03-03T06:11:28.721Z,47.05
2018-03-03T06:12:28.914Z,46.86
2018-03-03T06:13:28.818Z,46.86
2018-03-03T06:14:28.816Z,46.95
2018-03-03T06:15:28.882Z,47.05
2018-03-03T06:16:28.927Z,46.95
2018-03-03T06:17:29.268Z,47.05
2018-03-03T06:18:28.993Z,47.05
2018-03-03T06:19:28.980Z,47.05
2018-03-03T06:20:28.992Z,47.05
2018-03-03T06:21:29.152Z,46.95
2018-03-03T06:22:29.089Z,46.86
2018-03-03T06:23:29.131Z,46.95
2018-03-03T06:24:29.452Z,47.05
2018-03-03T06:25:29.166Z,47.05
2018-03-03T06:26:29.335Z,46.95
2018-03-03T06:27:29.264Z,47.05
2018-03-03T06:28:29.233Z,47.05
2018-03-03T06:29:29.316Z,47.05
2018-03-03T06:30:29.430Z,47.05
2018-03-03T06:31:29.669Z,47.05
2018-03-03T06:32:29.363Z,46.95
2018-03-03T06:33:29.405Z,46.95
2018-03-03T06:34:29.463Z,46.95
2018-03-03T06:35:29.486Z,46.95
2018-03-03T06:36:29.601Z,46.86
2018-03-03T06:37:29.720Z,46.95
2018-03-03T06:38:29.823Z,47.05
2018-03-03T06:39:29.653Z,47.05
2018-03-03T06:40:29.625Z,46.86
2018-03-03T06:41:29.722Z,46.86
2018-03-03T06:42:29.712Z,46.77
2018-03-03T06:43:29.744Z,46.86
2018-03-03T06:44:29.835Z,46.86
2018-03-03T06:45:30.186Z,47.05
2018-03-03T06:46:29.766Z,46.47
2018-03-03T06:47:29.823Z,47.05
2018-03-03T06:48:30.098Z,46.47
2018-03-03T06:49:29.914Z,46.86
2018-03-03T06:50:29.982Z,46.77
2018-03-03T06:51:30.288Z,47.05
2018-03-03T06:52:29.985Z,46.77
2018-03-03T06:53:29.993Z,46.47
2018-03-03T06:54:30.045Z,46.67
2018-03-03T06:55:30.119Z,46.57
2018-03-03T06:56:30.086Z,46.57
2018-03-03T06:57:30.145Z,46.47
2018-03-03T06:58:30.475Z,46.38
2018-03-03T06:59:30.399Z,46.57
2018-03-03T07:00:30.168Z,46.47
2018-03-03T07:01:30.206Z,46.47
2018-03-03T07:02:30.262Z,46.38
2018-03-03T07:03:30.307Z,46.67
2018-03-03T07:04:30.314Z,46.67
2018-03-03T07:05:30.728Z,46.86
2018-03-03T07:06:30.421Z,46.77
2018-03-03T07:07:30.393Z,46.77
2018-03-03T07:08:30.492Z,46.77
2018-03-03T07:09:30.539Z,46.77
2018-03-03T07:10:30.635Z,46.57
2018-03-03T07:11:30.865Z,46.67
2018-03-03T07:12:30.639Z,46.57
2018-03-03T07:13:30.698Z,46.47
2018-03-03T07:14:30.653Z,46.57
2018-03-03T07:15:30.739Z,46.47
2018-03-03T07:16:30.695Z,46.38
2018-03-03T07:17:31.019Z,46.47
2018-03-03T07:18:30.837Z,46.19
2018-03-03T07:19:30.937Z,46.38
2018-03-03T07:20:31.030Z,46.47
2018-03-03T07:21:30.824Z,46.38
2018-03-03T07:22:30.965Z,46.38
2018-03-03T07:23:31.171Z,46.47
2018-03-03T07:24:30.935Z,46.09
2018-03-03T07:25:31.021Z,46.28
2018-03-03T07:26:30.947Z,46.19
2018-03-03T07:27:31.038Z,46.28
2018-03-03T07:28:31.020Z,45.99
2018-03-03T07:29:31.342Z,45.90
2018-03-03T07:30:31.100Z,45.80
2018-03-03T07:31:31.114Z,45.80
2018-03-03T07:32:31.298Z,46.09
2018-03-03T07:33:31.174Z,46.09
2018-03-03T07:34:31.193Z,45.90
2018-03-03T07:35:31.591Z,45.61
2018-03-03T07:36:31.519Z,45.92
2018-03-03T07:37:31.303Z,45.99
2018-03-03T07:38:31.361Z,45.92
2018-03-03T07:39:31.399Z,46.11
2018-03-03T07:40:31.419Z,46.01
2018-03-03T07:41:31.768Z,46.01
2018-03-03T07:42:31.440Z,46.11
2018-03-03T07:43:31.475Z,46.11
2018-03-03T07:44:31.632Z,46.21
2018-03-03T07:45:31.578Z,45.92
2018-03-03T07:46:31.625Z,45.83
2018-03-03T07:47:31.956Z,46.01
2018-03-03T07:48:31.679Z,46.01
2018-03-03T07:49:31.666Z,46.01
2018-03-03T07:50:31.752Z,45.44
2018-03-03T07:51:31.698Z,45.83
2018-03-03T07:52:31.746Z,45.83
2018-03-03T07:53:32.135Z,45.83
2018-03-03T07:54:31.851Z,45.63
2018-03-03T07:55:31.843Z,45.63
2018-03-03T07:56:31.938Z,45.92
2018-03-03T07:57:32.090Z,45.63
2018-03-03T07:58:31.958Z,45.83
2018-03-03T07:59:32.279Z,45.63
2018-03-03T08:00:31.991Z,45.83
2018-03-03T08:01:32.183Z,45.73
2018-03-03T08:02:32.060Z,45.73
2018-03-03T08:03:32.057Z,45.44
2018-03-03T08:04:32.117Z,45.53
2018-03-03T08:05:32.464Z,45.44
2018-03-03T08:06:32.180Z,45.34
2018-03-03T08:07:32.195Z,45.53
2018-03-03T08:08:32.232Z,45.63
2018-03-03T08:09:32.255Z,45.44
2018-03-03T08:10:32.260Z,45.63
2018-03-03T08:11:32.655Z,45.44
2018-03-03T08:12:32.402Z,45.83
2018-03-03T08:13:32.437Z,46.04
2018-03-03T08:14:32.399Z,45.53
2018-03-03T08:15:32.409Z,45.44
2018-03-03T08:16:32.497Z,45.56
2018-03-03T08:17:33.065Z,45.25
2018-03-03T08:18:32.510Z,45.63
2018-03-03T08:19:32.600Z,45.36
2018-03-03T08:20:32.598Z,45.27
2018-03-03T08:21:32.581Z,45.27
2018-03-03T08:22:32.616Z,45.17
2018-03-03T08:23:32.658Z,44.89
2018-03-03T08:24:33.025Z,45.17
2018-03-03T08:25:32.814Z,45.17
2018-03-03T08:26:32.754Z,44.98
2018-03-03T08:27:32.811Z,44.98
2018-03-03T08:28:32.828Z,44.98
2018-03-03T08:29:32.877Z,44.89
2018-03-03T08:30:32.887Z,44.79
2018-03-03T08:31:33.215Z,45.07
2018-03-03T08:32:32.928Z,45.07
2018-03-03T08:33:33.023Z,44.89
2018-03-03T08:34:33.010Z,44.98
2018-03-03T08:35:33.040Z,45.46
2018-03-03T08:36:33.047Z,44.98
2018-03-03T08:37:33.443Z,45.17
2018-03-03T08:38:33.159Z,44.79
2018-03-03T08:39:33.124Z,44.89
2018-03-03T08:40:33.205Z,44.98
2018-03-03T08:41:33.202Z,44.69
2018-03-03T08:42:33.332Z,44.89
2018-03-03T08:43:33.568Z,44.79
2018-03-03T08:44:33.555Z,44.69
2018-03-03T08:45:33.342Z,44.69
2018-03-03T08:46:33.510Z,44.59
2018-03-03T08:47:33.423Z,44.40
2018-03-03T08:48:33.457Z,44.49
2018-03-03T08:49:33.506Z,44.69
2018-03-03T08:50:33.856Z,44.21
2018-03-03T08:51:33.544Z,44.40
2018-03-03T08:52:33.549Z,44.49
2018-03-03T08:53:33.655Z,44.59
2018-03-03T08:54:33.640Z,44.49
2018-03-03T08:55:33.665Z,44.40
2018-03-03T08:56:33.714Z,44.32
2018-03-03T08:57:34.001Z,44.40
2018-03-03T08:58:33.774Z,44.31
2018-03-03T08:59:33.736Z,44.23
2018-03-03T09:00:33.810Z,44.23
2018-03-03T09:01:33.844Z,44.13
2018-03-03T09:02:33.829Z,44.23
2018-03-03T09:03:33.955Z,44.13
2018-03-03T09:04:34.358Z,44.13
2018-03-03T09:05:33.979Z,44.13
2018-03-03T09:06:33.962Z,44.04
2018-03-03T09:07:34.029Z,44.04
2018-03-03T09:08:34.064Z,44.23
2018-03-03T09:09:34.068Z,44.04
2018-03-03T09:10:34.094Z,44.23
2018-03-03T09:11:34.482Z,44.13
2018-03-03T09:12:34.218Z,44.32
2018-03-03T09:13:34.217Z,44.23
2018-03-03T09:14:34.243Z,44.23
2018-03-03T09:15:34.275Z,44.32
2018-03-03T09:16:34.326Z,44.13
2018-03-03T09:17:34.620Z,44.13
2018-03-03T09:18:34.364Z,44.32
2018-03-03T09:19:34.401Z,44.23
2018-03-03T09:20:34.421Z,44.32
2018-03-03T09:21:34.471Z,44.32
2018-03-03T09:22:34.492Z,44.23
2018-03-03T09:23:34.867Z,44.23
2018-03-03T09:24:34.558Z,44.32
2018-03-03T09:25:34.570Z,44.42
2018-03-03T09:26:34.702Z,44.32
2018-03-03T09:27:34.645Z,44.32
2018-03-03T09:28:34.672Z,44.04
2018-03-03T09:29:35.010Z,44.32
2018-03-03T09:30:34.756Z,43.75
2018-03-03T09:31:34.792Z,44.04
2018-03-03T09:32:34.810Z,43.94
2018-03-03T09:33:34.817Z,43.85
2018-03-03T09:34:34.869Z,43.75
2018-03-03T09:35:35.204Z,43.75
2018-03-03T09:36:34.934Z,43.55
2018-03-03T09:37:34.940Z,43.65
2018-03-03T09:38:34.983Z,43.75
2018-03-03T09:39:35.048Z,43.85
2018-03-03T09:40:35.043Z,43.75
2018-03-03T09:41:35.400Z,43.75
2018-03-03T09:42:35.183Z,43.65
2018-03-03T09:43:35.174Z,43.65
2018-03-03T09:44:35.171Z,43.65
2018-03-03T09:45:35.312Z,43.65
2018-03-03T09:46:35.290Z,43.65
2018-03-03T09:47:35.270Z,43.55
2018-03-03T09:48:35.592Z,43.75
2018-03-03T09:49:35.336Z,44.13
2018-03-03T09:50:35.358Z,43.46
2018-03-03T09:51:35.386Z,43.65
2018-03-03T09:52:35.429Z,44.04
2018-03-03T09:53:35.413Z,43.65
2018-03-03T09:54:35.748Z,43.85
2018-03-03T09:55:35.505Z,43.75
2018-03-03T09:56:35.706Z,43.46
2018-03-03T09:57:35.539Z,43.55
2018-03-03T09:58:35.618Z,43.65
2018-03-03T09:59:35.598Z,43.75
2018-03-03T10:00:36.007Z,43.65
2018-03-03T10:01:35.813Z,43.65
2018-03-03T10:02:35.731Z,43.75
2018-03-03T10:03:35.758Z,43.65
2018-03-03T10:04:35.842Z,43.46
2018-03-03T10:05:35.796Z,43.55
2018-03-03T10:06:36.125Z,43.46
2018-03-03T10:08:35.914Z,43.55
2018-03-03T10:09:36.057Z,43.46
2018-03-03T10:10:35.991Z,43.46
2018-03-03T10:11:36.006Z,43.55
2018-03-03T10:12:37.363Z,43.75
2018-03-03T10:14:36.132Z,43.55
2018-03-03T10:15:36.167Z,43.55
2018-03-03T10:16:36.426Z,43.55
2018-03-03T10:17:36.195Z,43.55
2018-03-03T10:18:36.418Z,43.65
2018-03-03T10:19:36.553Z,43.55
2018-03-03T10:21:36.344Z,43.67
2018-03-03T10:23:36.377Z,43.46
2018-03-03T10:24:36.426Z,43.55
2018-03-03T10:25:36.747Z,43.55
2018-03-03T10:26:36.497Z,43.46
2018-03-03T10:27:36.515Z,43.29
2018-03-03T10:28:36.541Z,43.29
2018-03-03T10:29:36.802Z,43.19
2018-03-03T10:30:36.614Z,43.29
2018-03-03T10:31:36.927Z,43.38
2018-03-03T10:32:36.671Z,43.48
2018-03-03T10:33:36.709Z,43.19
2018-03-03T10:34:36.751Z,43.38
2018-03-03T10:35:36.734Z,43.29
2018-03-03T10:36:36.762Z,43.38
2018-03-03T10:37:37.120Z,43.38
2018-03-03T10:38:36.846Z,43.10
2018-03-03T10:39:36.985Z,43.10
2018-03-03T10:40:36.898Z,43.10
2018-03-03T10:41:36.977Z,43.10
2018-03-03T10:42:36.990Z,43.19
2018-03-03T10:43:37.390Z,43.19
2018-03-03T10:46:37.108Z,43.10
2018-03-03T10:47:37.148Z,43.10
2018-03-03T10:49:37.528Z,43.10
2018-03-03T10:51:37.298Z,43.10
2018-03-03T10:52:37.316Z,43.10
2018-03-03T10:54:37.351Z,43.10
2018-03-03T10:55:37.720Z,43.00
2018-03-03T10:56:37.446Z,43.10
2018-03-03T10:58:37.475Z,43.00
2018-03-03T10:59:38.157Z,43.10
2018-03-03T11:00:37.591Z,43.10
2018-03-03T11:01:38.056Z,43.00
2018-03-03T11:02:37.607Z,43.19
2018-03-03T11:03:37.797Z,43.19
2018-03-03T11:04:37.633Z,43.19
2018-03-03T11:05:37.680Z,43.19
2018-03-03T11:06:37.714Z,43.10
2018-03-03T11:07:39.052Z,42.90
2018-03-03T11:08:37.823Z,43.00
2018-03-03T11:09:37.825Z,43.29
2018-03-03T11:10:37.854Z,43.19
2018-03-03T11:11:37.895Z,43.00
2018-03-03T11:12:37.914Z,43.10
2018-03-03T11:13:38.242Z,43.19
2018-03-03T11:14:38.183Z,43.29
2018-03-03T11:15:38.009Z,43.58
2018-03-03T11:16:38.040Z,43.67
2018-03-03T11:17:38.040Z,43.58
2018-03-03T11:18:38.219Z,43.58
2018-03-03T11:19:38.432Z,43.58
2018-03-03T11:20:38.190Z,43.67
2018-03-03T11:21:38.278Z,44.15
2018-03-03T11:22:38.250Z,44.15
2018-03-03T11:23:38.351Z,43.77
2018-03-03T11:24:38.404Z,43.77
2018-03-03T11:25:38.651Z,43.77
2018-03-03T11:26:38.361Z,43.77
2018-03-03T11:27:38.513Z,43.77
2018-03-03T11:28:38.435Z,43.87
2018-03-03T11:29:38.478Z,43.87
2018-03-03T11:30:38.499Z,43.77
2018-03-03T11:31:38.835Z,44.06
2018-03-03T11:32:38.619Z,44.06
2018-03-03T11:33:38.572Z,44.35
2018-03-03T11:34:38.693Z,44.25
2018-03-03T11:35:38.664Z,44.35
2018-03-03T11:36:38.669Z,44.45
2018-03-03T11:37:38.998Z,44.35
2018-03-03T11:38:38.746Z,44.25
2018-03-03T11:39:38.758Z,44.25
2018-03-03T11:40:38.822Z,44.25
2018-03-03T11:41:38.833Z,44.15
2018-03-03T11:42:38.880Z,44.15
2018-03-03T11:43:39.167Z,44.15
2018-03-03T11:44:38.918Z,44.25
2018-03-03T11:45:38.939Z,44.15
2018-03-03T11:46:38.984Z,44.25
2018-03-03T11:48:39.109Z,44.15
2018-03-03T11:50:39.443Z,44.35
2018-03-03T11:51:39.146Z,44.25
2018-03-03T11:52:39.161Z,44.25
2018-03-03T11:53:39.320Z,44.15
2018-03-03T11:54:39.206Z,44.35
2018-03-03T11:55:39.288Z,44.35
2018-03-03T11:56:40.012Z,44.35
2018-03-03T11:57:39.301Z,44.25
2018-03-03T11:58:39.716Z,44.25
2018-03-03T11:59:39.371Z,44.25
2018-03-03T12:00:39.418Z,44.35
2018-03-03T12:01:39.463Z,44.35
2018-03-03T12:02:39.788Z,44.35
2018-03-03T12:03:39.628Z,44.15
2018-03-03T12:04:39.567Z,44.25
2018-03-03T12:05:39.573Z,44.25
2018-03-03T12:06:39.628Z,44.25
2018-03-03T12:07:39.652Z,44.15
2018-03-03T12:08:39.947Z,44.25
2018-03-03T12:09:39.815Z,44.25
2018-03-03T12:10:39.728Z,44.35
2018-03-03T12:11:39.756Z,44.25
2018-03-03T12:12:39.826Z,44.06
2018-03-03T12:13:39.842Z,44.08
2018-03-03T12:14:40.161Z,43.87
2018-03-03T12:15:39.925Z,43.87
2018-03-03T12:16:39.946Z,43.70
2018-03-03T12:17:39.964Z,43.89
2018-03-03T12:18:39.987Z,43.77
2018-03-03T12:19:40.089Z,43.67
2018-03-03T12:20:40.312Z,43.70
2018-03-03T12:21:40.093Z,43.70
2018-03-03T12:22:40.140Z,43.60
2018-03-03T12:24:40.176Z,43.50
2018-03-03T12:25:40.259Z,43.89
2018-03-03T12:26:40.538Z,43.50
2018-03-03T12:27:40.242Z,43.98
2018-03-03T12:29:40.338Z,43.50
2018-03-03T12:30:40.579Z,43.41
2018-03-03T12:31:40.386Z,43.50
2018-03-03T12:32:40.761Z,43.89
2018-03-03T12:33:40.469Z,43.41
2018-03-03T12:34:40.478Z,43.70
2018-03-03T12:35:40.527Z,43.50
2018-03-03T12:36:40.602Z,43.41
2018-03-03T12:37:40.626Z,43.60
2018-03-03T12:38:40.901Z,43.60
2018-03-03T12:39:40.639Z,43.41
2018-03-03T12:40:40.690Z,43.50
2018-03-03T12:41:40.920Z,43.70
2018-03-03T12:42:40.783Z,43.41
2018-03-03T12:44:41.242Z,43.21
2018-03-03T12:46:40.904Z,43.41
2018-03-03T12:47:40.958Z,43.12
2018-03-03T12:48:40.944Z,43.12
2018-03-03T12:49:41.025Z,43.21
2018-03-03T12:51:41.327Z,43.02
2018-03-03T12:52:41.036Z,43.41
2018-03-03T12:54:41.265Z,43.12
2018-03-03T12:55:41.137Z,43.12
2018-03-03T12:56:41.200Z,43.12
2018-03-03T12:57:41.540Z,43.21
2018-03-03T12:58:41.286Z,43.21
2018-03-03T12:59:41.320Z,43.21
2018-03-03T13:01:41.504Z,43.12
2018-03-03T13:02:41.387Z,43.12
2018-03-03T13:03:41.712Z,43.02
2018-03-03T13:04:41.561Z,43.02
2018-03-03T13:05:41.490Z,42.93
2018-03-03T13:06:41.517Z,43.02
2018-03-03T13:07:41.552Z,42.93
2018-03-03T13:08:41.580Z,43.70
2018-03-03T13:10:41.911Z,43.12
2018-03-03T13:11:41.678Z,43.04
2018-03-03T13:12:41.682Z,43.12
2018-03-03T13:13:41.712Z,43.02
2018-03-03T13:14:41.792Z,43.02
2018-03-03T13:15:41.785Z,42.93
2018-03-03T13:16:42.164Z,43.02